createdAt,value
2023-02-25T00:00:39.307Z,5.83
2023-02-25T00:03:06.986Z,5.85
2023-02-25T00:05:34.674Z,5.88
2023-02-25T00:08:02.364Z,5.91
2023-02-25T00:10:30.100Z,5.90
2023-02-25T00:13:08.899Z,5.88
2023-02-25T00:15:46.317Z,5.86
2023-02-25T00:18:14.001Z,5.84
2023-02-25T00:20:42.289Z,5.83
2023-02-25T00:23:10.123Z,5.83
2023-02-25T00:25:37.973Z,5.81
2023-02-25T00:28:06.413Z,5.81
2023-02-25T00:30:34.412Z,5.82
2023-02-25T00:33:03.964Z,5.81
2023-02-25T00:35:31.592Z,5.81
2023-02-25T00:38:13.758Z,5.82
2023-02-25T00:40:42.944Z,5.84
2023-02-25T00:43:10.731Z,5.88
2023-02-25T00:45:39.531Z,5.86
2023-02-25T00:48:08.863Z,5.83
2023-02-25T00:50:36.917Z,5.80
2023-02-25T00:53:04.641Z,5.79
2023-02-25T00:55:33.377Z,5.73
2023-02-25T00:58:01.992Z,5.77
2023-02-25T01:00:30.477Z,5.76
2023-02-25T01:02:59.328Z,5.75
2023-02-25T01:05:28.439Z,5.74
2023-02-25T01:07:56.174Z,5.75
2023-02-25T01:10:23.907Z,5.76
2023-02-25T01:12:51.627Z,5.78
2023-02-25T01:15:19.476Z,5.78
2023-02-25T01:17:47.172Z,5.77
2023-02-25T01:20:19.790Z,5.78
2023-02-25T01:22:49.060Z,5.78
2023-02-25T01:25:17.654Z,5.82
2023-02-25T01:27:45.647Z,5.82
2023-02-25T01:30:13.817Z,5.79
2023-02-25T01:32:41.675Z,5.81
2023-02-25T01:35:09.893Z,5.81
2023-02-25T01:37:37.600Z,5.81
2023-02-25T01:40:08.174Z,5.78
2023-02-25T01:42:35.884Z,5.78
2023-02-25T01:45:25.959Z,5.81
2023-02-25T01:47:57.553Z,5.81
2023-02-25T01:50:28.516Z,5.79
2023-02-25T01:52:58.420Z,5.79
2023-02-25T01:55:27.597Z,5.76
2023-02-25T01:57:55.354Z,5.80
2023-02-25T02:00:23.862Z,5.82
2023-02-25T02:02:51.666Z,5.81
2023-02-25T02:05:19.530Z,5.83
2023-02-25T02:07:48.306Z,5.83
2023-02-25T02:10:15.926Z,5.85
2023-02-25T02:12:47.586Z,5.81
2023-02-25T02:15:16.389Z,5.86
2023-02-25T02:17:47.686Z,5.87
2023-02-25T02:20:20.502Z,5.89
2023-02-25T02:22:57.986Z,5.90
2023-02-25T02:26:16.845Z,5.92
2023-02-25T02:28:59.589Z,5.91
2023-02-25T02:31:45.190Z,5.90
2023-02-25T02:34:20.933Z,5.90
2023-02-25T02:36:57.389Z,5.90
2023-02-25T02:39:27.663Z,5.91
2023-02-25T02:42:00.692Z,5.92
2023-02-25T02:44:32.115Z,5.90
2023-02-25T02:47:04.798Z,5.94
2023-02-25T02:49:37.367Z,5.92
2023-02-25T02:52:06.943Z,5.89
2023-02-25T02:54:36.854Z,5.89
2023-02-25T02:57:06.268Z,5.90
2023-02-25T02:59:36.280Z,5.87
2023-02-25T03:02:08.723Z,5.85
2023-02-25T03:04:39.468Z,5.85
2023-02-25T03:07:09.598Z,5.85
2023-02-25T03:09:40.948Z,5.85
2023-02-25T03:12:08.684Z,5.81
2023-02-25T03:14:37.554Z,5.83
2023-02-25T03:17:09.975Z,5.82
2023-02-25T03:19:41.238Z,5.83
2023-02-25T03:22:11.340Z,5.85
2023-02-25T03:24:43.116Z,5.84
2023-02-25T03:27:25.824Z,5.90
2023-02-25T03:29:54.572Z,5.92
2023-02-25T03:32:24.104Z,5.92
2023-02-25T03:34:52.422Z,5.90
2023-02-25T03:37:22.995Z,5.91
2023-02-25T03:39:55.575Z,5.90
2023-02-25T03:42:28.912Z,5.92
2023-02-25T03:44:59.419Z,5.90
2023-02-25T03:47:29.764Z,5.91
2023-02-25T03:49:59.415Z,5.91
2023-02-25T03:52:28.644Z,5.94
2023-02-25T03:54:58.775Z,5.97
2023-02-25T03:57:29.490Z,5.98
2023-02-25T03:59:57.354Z,5.97
2023-02-25T04:02:26.575Z,5.97
2023-02-25T04:04:55.667Z,5.98
2023-02-25T04:07:23.333Z,6.02
2023-02-25T04:09:51.035Z,6.03
2023-02-25T04:12:18.767Z,6.03
2023-02-25T04:14:46.575Z,6.02
2023-02-25T04:17:14.315Z,6.02
2023-02-25T04:19:41.954Z,6.03
2023-02-25T04:22:11.059Z,6.02
2023-02-25T04:24:38.698Z,6.02
2023-02-25T04:27:06.395Z,6.01
2023-02-25T04:29:34.200Z,6.02
2023-02-25T04:32:02.029Z,6.03
2023-02-25T04:34:29.764Z,6.01
2023-02-25T04:36:57.411Z,6.00
2023-02-25T04:39:26.533Z,5.97
2023-02-25T04:41:54.214Z,5.96
2023-02-25T04:44:21.866Z,5.96
2023-02-25T04:46:51.858Z,5.96
2023-02-25T04:49:21.156Z,5.94
2023-02-25T04:51:49.495Z,5.94
2023-02-25T04:54:18.454Z,5.93
2023-02-25T04:56:48.227Z,5.90
2023-02-25T04:59:16.110Z,5.89
2023-02-25T05:01:44.536Z,5.87
2023-02-25T05:04:12.235Z,5.85
2023-02-25T05:06:40.216Z,5.82
2023-02-25T05:09:10.302Z,5.82
2023-02-25T05:11:38.189Z,5.80
2023-02-25T05:14:07.216Z,5.77
2023-02-25T05:16:34.888Z,5.76
2023-02-25T05:19:02.636Z,5.78
2023-02-25T05:21:30.435Z,5.78
2023-02-25T05:23:58.186Z,5.78
2023-02-25T05:26:26.431Z,5.78
2023-02-25T05:28:55.342Z,5.78
2023-02-25T05:31:25.941Z,5.77
2023-02-25T05:33:53.996Z,5.74
2023-02-25T05:36:22.813Z,5.72
2023-02-25T05:38:54.121Z,5.75
2023-02-25T05:41:22.093Z,5.75
2023-02-25T05:43:49.823Z,5.75
2023-02-25T05:46:17.595Z,5.77
2023-02-25T05:48:47.079Z,5.77
2023-02-25T05:51:16.925Z,5.79
2023-02-25T05:53:45.174Z,5.79
2023-02-25T05:56:14.679Z,5.81
2023-02-25T05:58:42.548Z,5.82
2023-02-25T06:01:11.505Z,5.78
2023-02-25T06:03:39.287Z,5.81
2023-02-25T06:06:10.780Z,5.80
2023-02-25T06:08:38.867Z,5.78
2023-02-25T06:11:07.344Z,5.76
2023-02-25T06:13:35.962Z,5.76
2023-02-25T06:16:04.475Z,5.77
2023-02-25T06:18:37.063Z,5.78
2023-02-25T06:21:06.961Z,5.77
2023-02-25T06:23:37.124Z,5.79
2023-02-25T06:26:05.914Z,5.77
2023-02-25T06:28:33.762Z,5.74
2023-02-25T06:31:01.936Z,5.74
2023-02-25T06:33:30.770Z,5.76
2023-02-25T06:35:59.051Z,5.78
2023-02-25T06:38:26.823Z,5.81
2023-02-25T06:40:55.939Z,5.79
2023-02-25T06:43:23.585Z,5.75
2023-02-25T06:45:51.317Z,5.75
2023-02-25T06:48:19.012Z,5.74
2023-02-25T06:50:46.728Z,5.75
2023-02-25T06:53:14.540Z,5.74
2023-02-25T06:55:42.203Z,5.71
2023-02-25T06:58:11.352Z,5.73
2023-02-25T07:00:43.179Z,5.75
2023-02-25T07:03:12.238Z,5.75
2023-02-25T07:05:39.924Z,5.78
2023-02-25T07:08:07.787Z,5.80
2023-02-25T07:10:35.793Z,5.79
2023-02-25T07:13:03.431Z,5.78
2023-02-25T07:15:32.550Z,5.79
2023-02-25T07:18:00.295Z,5.78
2023-02-25T07:20:27.957Z,5.81
2023-02-25T07:22:55.672Z,5.83
2023-02-25T07:25:23.537Z,5.84
2023-02-25T07:27:51.255Z,5.84
2023-02-25T07:30:19.327Z,5.84
2023-02-25T07:32:48.616Z,5.85
2023-02-25T07:35:16.510Z,5.87
2023-02-25T07:37:44.524Z,5.86
2023-02-25T07:40:13.950Z,5.83
2023-02-25T07:42:42.229Z,5.81
2023-02-25T07:45:11.385Z,5.80
2023-02-25T07:47:39.356Z,5.83
2023-02-25T07:50:12.661Z,5.82
2023-02-25T07:52:40.646Z,5.82
2023-02-25T07:55:09.262Z,5.84
2023-02-25T07:57:36.883Z,5.82
2023-02-25T08:00:10.297Z,5.81
2023-02-25T08:02:38.300Z,5.83
2023-02-25T08:05:07.177Z,5.83
2023-02-25T08:07:36.376Z,5.78
2023-02-25T08:10:04.428Z,5.71
2023-02-25T08:12:32.232Z,5.63
2023-02-25T08:15:02.057Z,5.58
2023-02-25T08:17:32.531Z,5.62
2023-02-25T08:20:00.222Z,5.62
2023-02-25T08:22:27.901Z,5.65
2023-02-25T08:24:56.998Z,5.68
2023-02-25T08:27:24.702Z,5.71
2023-02-25T08:29:52.360Z,5.70
2023-02-25T08:32:20.346Z,5.71
2023-02-25T08:34:50.627Z,5.71
2023-02-25T08:37:18.377Z,5.71
2023-02-25T08:39:46.230Z,5.74
2023-02-25T08:42:18.873Z,5.83
2023-02-25T08:44:46.615Z,5.85
2023-02-25T08:47:14.318Z,5.90
2023-02-25T08:49:41.932Z,5.95
2023-02-25T08:52:11.826Z,5.98
2023-02-25T08:54:39.553Z,5.99
2023-02-25T08:57:07.236Z,5.98
2023-02-25T08:59:36.829Z,6.01
2023-02-25T09:02:06.296Z,6.05
2023-02-25T09:04:34.919Z,6.04
2023-02-25T09:07:03.252Z,6.05
2023-02-25T09:09:31.899Z,6.07
2023-02-25T09:11:59.590Z,6.07
2023-02-25T09:14:27.305Z,6.08
2023-02-25T09:16:56.439Z,6.10
2023-02-25T09:19:24.363Z,6.20
2023-02-25T09:21:52.076Z,6.32
2023-02-25T09:24:20.088Z,6.40
2023-02-25T09:26:48.034Z,6.42
2023-02-25T09:29:15.845Z,6.41
2023-02-25T09:31:43.731Z,6.46
2023-02-25T09:34:14.517Z,6.49
2023-02-25T09:36:42.807Z,6.56
2023-02-25T09:39:10.654Z,6.64
2023-02-25T09:41:43.964Z,6.71
2023-02-25T09:44:15.405Z,6.72
2023-02-25T09:46:47.515Z,6.68
2023-02-25T09:49:21.743Z,6.63
2023-02-25T09:51:53.037Z,6.61
2023-02-25T09:54:24.336Z,6.58
2023-02-25T09:56:54.060Z,6.60
2023-02-25T09:59:22.302Z,6.63
2023-02-25T10:01:53.119Z,6.65
2023-02-25T10:04:31.974Z,6.67
2023-02-25T10:07:04.504Z,6.65
2023-02-25T10:09:38.003Z,6.68
2023-02-25T10:12:10.107Z,6.69
2023-02-25T10:14:53.144Z,6.76
2023-02-25T10:17:27.194Z,6.82
2023-02-25T10:20:31.498Z,6.91
2023-02-25T10:23:05.030Z,6.96
2023-02-25T10:25:36.456Z,7.03
2023-02-25T10:28:07.547Z,7.08
2023-02-25T10:30:39.430Z,7.14
2023-02-25T10:33:14.802Z,7.19
2023-02-25T10:35:44.038Z,7.16
2023-02-25T10:38:12.761Z,7.35
2023-02-25T10:40:41.159Z,7.42
2023-02-25T10:43:20.069Z,7.39
2023-02-25T10:45:48.638Z,7.30
2023-02-25T10:48:22.077Z,7.22
2023-02-25T10:51:05.686Z,7.15
2023-02-25T10:53:34.039Z,7.11
2023-02-25T10:56:02.748Z,7.14
2023-02-25T10:58:37.578Z,7.20
2023-02-25T11:01:09.435Z,7.29
2023-02-25T11:03:47.190Z,7.29
2023-02-25T11:06:22.749Z,7.33
2023-02-25T11:08:51.246Z,7.32
2023-02-25T11:11:22.156Z,7.25
2023-02-25T11:14:02.309Z,7.29
2023-02-25T11:16:31.199Z,7.33
2023-02-25T11:19:01.209Z,7.45
2023-02-25T11:21:33.769Z,7.43
2023-02-25T11:24:03.626Z,7.37
2023-02-25T11:26:34.355Z,7.36
2023-02-25T11:29:04.045Z,7.37
2023-02-25T11:31:35.527Z,7.40
2023-02-25T11:34:07.018Z,7.39
2023-02-25T11:36:38.176Z,7.39
2023-02-25T11:39:14.904Z,7.45
2023-02-25T11:41:44.057Z,7.56
2023-02-25T11:44:24.176Z,7.70
2023-02-25T11:46:58.583Z,7.70
2023-02-25T11:49:34.254Z,7.63
2023-02-25T11:52:07.520Z,7.61
2023-02-25T11:54:41.537Z,7.58
2023-02-25T11:57:12.654Z,7.66
2023-02-25T11:59:45.232Z,7.74
2023-02-25T12:02:23.962Z,7.79
2023-02-25T12:05:23.982Z,7.83
2023-02-25T12:08:13.020Z,7.74
2023-02-25T12:11:14.111Z,7.83
2023-02-25T12:13:57.402Z,7.95
2023-02-25T12:17:03.120Z,7.96
2023-02-25T12:20:10.035Z,7.92
2023-02-25T12:22:53.484Z,7.72
2023-02-25T12:25:31.951Z,7.67
2023-02-25T12:28:17.130Z,7.63
2023-02-25T12:31:12.291Z,7.64
2023-02-25T12:34:13.257Z,7.75
2023-02-25T12:36:57.049Z,7.80
2023-02-25T12:39:46.491Z,7.88
2023-02-25T12:42:27.130Z,7.96
2023-02-25T12:45:10.373Z,7.99
2023-02-25T12:47:47.756Z,7.84
2023-02-25T12:50:38.888Z,7.75
2023-02-25T12:53:21.037Z,7.79
2023-02-25T12:56:19.983Z,7.83
2023-02-25T12:59:01.285Z,7.78
2023-02-25T13:01:44.016Z,7.80
2023-02-25T13:04:28.280Z,7.88
2023-02-25T13:07:31.812Z,7.97
2023-02-25T13:10:07.143Z,8.05
2023-02-25T13:12:53.253Z,8.08
2023-02-25T13:15:27.014Z,8.04
2023-02-25T13:18:19.018Z,8.05
2023-02-25T13:21:16.305Z,8.05
2023-02-25T13:24:06.970Z,7.91
2023-02-25T13:26:46.791Z,7.79
2023-02-25T13:29:24.369Z,7.78
2023-02-25T13:32:02.196Z,7.86
2023-02-25T13:34:36.980Z,7.93
2023-02-25T13:37:24.656Z,8.03
2023-02-25T13:40:05.240Z,8.13
2023-02-25T13:42:51.639Z,8.05
2023-02-25T13:45:42.283Z,7.93
2023-02-25T13:48:41.143Z,7.79
2023-02-25T13:51:24.562Z,7.78
2023-02-25T13:54:07.818Z,7.86
2023-02-25T13:56:51.353Z,7.88
2023-02-25T13:59:32.210Z,8.02
2023-02-25T14:02:17.952Z,8.14
2023-02-25T14:05:05.936Z,8.22
2023-02-25T14:07:50.403Z,8.24
2023-02-25T14:10:34.549Z,8.19
2023-02-25T14:13:21.717Z,8.16
2023-02-25T14:15:59.307Z,8.18
2023-02-25T14:18:37.848Z,8.22
2023-02-25T14:21:32.340Z,8.22
2023-02-25T14:24:02.926Z,8.23
2023-02-25T14:26:37.371Z,8.22
2023-02-25T14:29:15.382Z,8.22
2023-02-25T14:31:55.971Z,8.26
2023-02-25T14:34:31.786Z,8.28
2023-02-25T14:37:09.818Z,8.40
2023-02-25T14:39:46.310Z,8.37
2023-02-25T14:42:24.960Z,8.35
2023-02-25T14:44:57.502Z,8.40
2023-02-25T14:47:29.360Z,8.38
2023-02-25T14:50:00.374Z,8.32
2023-02-25T14:52:40.117Z,8.25
2023-02-25T14:56:26.008Z,8.17
2023-02-25T14:59:36.085Z,8.05
2023-02-25T15:02:31.335Z,8.03
2023-02-25T15:05:12.319Z,8.01
2023-02-25T15:07:55.732Z,7.98
2023-02-25T15:10:31.551Z,7.99
2023-02-25T15:13:30.445Z,8.00
2023-02-25T15:16:41.199Z,7.89
2023-02-25T15:19:37.944Z,7.79
2023-02-25T15:22:22.399Z,7.69
2023-02-25T15:24:51.143Z,7.59
2023-02-25T15:27:47.961Z,7.49
2023-02-25T15:30:17.989Z,7.35
2023-02-25T15:33:07.894Z,7.35
2023-02-25T15:35:58.468Z,7.26
2023-02-25T15:38:47.020Z,7.18
2023-02-25T15:41:44.674Z,7.16
2023-02-25T15:44:35.931Z,7.11
2023-02-25T15:47:20.093Z,7.11
2023-02-25T15:49:49.457Z,7.08
2023-02-25T15:52:55.707Z,7.06
2023-02-25T15:55:39.370Z,7.04
2023-02-25T15:58:44.985Z,7.04
2023-02-25T16:01:30.786Z,6.94
2023-02-25T16:03:58.714Z,6.91
2023-02-25T16:06:32.842Z,6.89
2023-02-25T16:09:07.926Z,6.88
2023-02-25T16:11:38.781Z,6.88
2023-02-25T16:14:09.248Z,6.84
2023-02-25T16:16:40.921Z,6.80
2023-02-25T16:19:10.709Z,6.79
2023-02-25T16:21:44.493Z,6.76
2023-02-25T16:24:14.410Z,6.73
2023-02-25T16:26:45.867Z,6.74
2023-02-25T16:29:24.787Z,6.74
2023-02-25T16:31:58.053Z,6.73
2023-02-25T16:34:30.356Z,6.71
2023-02-25T16:37:07.763Z,6.62
2023-02-25T16:39:37.970Z,6.53
2023-02-25T16:42:07.044Z,6.54
2023-02-25T16:44:39.139Z,6.52
2023-02-25T16:47:07.650Z,6.48
2023-02-25T16:49:39.151Z,6.46
2023-02-25T16:52:07.189Z,6.40
2023-02-25T16:54:38.855Z,6.41
2023-02-25T16:57:09.460Z,6.39
2023-02-25T16:59:38.683Z,6.38
2023-02-25T17:02:23.918Z,6.36
2023-02-25T17:04:53.150Z,6.38
2023-02-25T17:07:25.399Z,6.35
2023-02-25T17:09:56.706Z,6.32
2023-02-25T17:12:31.740Z,6.30
2023-02-25T17:15:01.064Z,6.30
2023-02-25T17:17:32.982Z,6.28
2023-02-25T17:20:02.599Z,6.29
2023-02-25T17:22:32.511Z,6.30
2023-02-25T17:25:02.090Z,6.29
2023-02-25T17:27:29.778Z,6.29
2023-02-25T17:29:57.668Z,6.25
2023-02-25T17:32:28.172Z,6.22
2023-02-25T17:48:30.896Z,5.11
2023-02-25T17:51:00.740Z,5.39
2023-02-25T17:53:39.147Z,5.57
2023-02-25T17:56:12.534Z,5.69
2023-02-25T17:58:40.274Z,5.78
2023-02-25T18:01:10.113Z,5.82
2023-02-25T18:03:46.701Z,5.86
2023-02-25T18:06:33.337Z,5.89
2023-02-25T18:09:02.865Z,5.91
2023-02-25T18:11:32.455Z,5.92
2023-02-25T18:14:02.258Z,5.94
2023-02-25T18:16:37.805Z,5.94
2023-02-25T18:19:28.754Z,5.94
2023-02-25T18:21:56.495Z,5.94
2023-02-25T18:24:30.809Z,5.91
2023-02-25T18:27:08.066Z,5.91
2023-02-25T18:29:36.259Z,5.91
2023-02-25T18:32:05.336Z,5.89
2023-02-25T18:34:34.565Z,5.86
2023-02-25T18:37:02.608Z,5.84
2023-02-25T18:39:30.331Z,5.85
2023-02-25T18:41:58.009Z,5.87
2023-02-25T18:44:25.690Z,5.86
2023-02-25T18:46:53.399Z,5.84
2023-02-25T18:49:21.169Z,5.83
2023-02-25T18:51:52.270Z,5.79
2023-02-25T18:54:19.939Z,5.76
2023-02-25T18:56:48.192Z,5.77
2023-02-25T18:59:15.903Z,5.76
2023-02-25T19:01:44.034Z,5.72
2023-02-25T19:04:16.010Z,5.68
2023-02-25T19:06:43.789Z,5.67
2023-02-25T19:09:12.919Z,5.64
2023-02-25T19:11:41.006Z,5.62
2023-02-25T19:14:08.846Z,5.58
2023-02-25T19:16:36.716Z,5.58
2023-02-25T19:19:06.525Z,5.58
2023-02-25T19:21:34.172Z,5.55
2023-02-25T19:24:01.921Z,5.54
2023-02-25T19:26:31.012Z,5.52
2023-02-25T19:28:58.753Z,5.50
2023-02-25T19:31:26.451Z,5.48
2023-02-25T19:33:54.207Z,5.48
2023-02-25T19:36:22.308Z,5.46
2023-02-25T19:38:50.494Z,5.42
2023-02-25T19:41:18.204Z,5.38
2023-02-25T19:43:47.296Z,5.35
2023-02-25T19:46:17.282Z,5.32
2023-02-25T19:48:45.128Z,5.29
2023-02-25T19:51:12.816Z,5.27
2023-02-25T19:53:41.804Z,5.24
2023-02-25T19:56:09.640Z,5.21
2023-02-25T19:58:37.344Z,5.19
2023-02-25T20:01:10.557Z,5.15
2023-02-25T20:03:38.357Z,5.13
2023-02-25T20:06:07.799Z,5.08
2023-02-25T20:08:36.448Z,5.04
2023-02-25T20:11:04.423Z,5.02
2023-02-25T20:13:32.096Z,5.00
2023-02-25T20:16:03.275Z,5.00
2023-02-25T20:18:32.464Z,4.98
2023-02-25T20:21:00.209Z,4.99
2023-02-25T20:23:28.212Z,4.95
2023-02-25T20:26:03.965Z,4.84
2023-02-25T20:28:31.689Z,4.73
2023-02-25T20:31:04.835Z,4.59
2023-02-25T20:33:34.786Z,4.49
2023-02-25T20:36:03.500Z,4.41
2023-02-25T20:38:33.677Z,4.38
2023-02-25T20:41:01.591Z,4.40
2023-02-25T20:43:29.476Z,4.40
2023-02-25T20:45:57.970Z,4.44
2023-02-25T20:48:28.405Z,4.46
2023-02-25T20:50:58.108Z,4.45
2023-02-25T20:53:26.442Z,4.44
2023-02-25T20:55:55.441Z,4.44
2023-02-25T20:58:23.240Z,4.46
2023-02-25T21:00:51.027Z,4.44
2023-02-25T21:03:18.753Z,4.44
2023-02-25T21:05:46.476Z,4.43
2023-02-25T21:08:15.711Z,4.42
2023-02-25T21:10:44.228Z,4.41
2023-02-25T21:13:11.974Z,4.41
2023-02-25T21:15:40.180Z,4.39
2023-02-25T21:18:08.039Z,4.39
2023-02-25T21:20:35.687Z,4.39
2023-02-25T21:23:03.509Z,4.38
2023-02-25T21:25:34.666Z,4.36
2023-02-25T21:28:02.424Z,4.38
2023-02-25T21:30:30.264Z,4.34
2023-02-25T21:32:58.883Z,4.30
2023-02-25T21:35:26.624Z,4.25
2023-02-25T21:37:54.408Z,4.23
2023-02-25T21:40:22.293Z,4.20
2023-02-25T21:42:51.428Z,4.21
2023-02-25T21:45:19.148Z,4.16
2023-02-25T21:47:47.243Z,4.07
2023-02-25T21:50:14.967Z,4.05
2023-02-25T21:52:42.724Z,4.08
2023-02-25T21:55:11.214Z,4.08
2023-02-25T21:57:39.488Z,4.08
2023-02-25T22:00:11.322Z,4.07
2023-02-25T22:02:39.135Z,4.06
2023-02-25T22:05:08.840Z,4.03
2023-02-25T22:07:38.944Z,4.02
2023-02-25T22:10:08.836Z,4.01
2023-02-25T22:12:39.477Z,4.01
2023-02-25T22:15:09.876Z,4.03
2023-02-25T22:17:37.926Z,4.01
2023-02-25T22:20:06.243Z,4.02
2023-02-25T22:22:33.999Z,4.04
2023-02-25T22:25:03.404Z,4.03
2023-02-25T22:27:31.637Z,4.06
2023-02-25T22:29:59.383Z,4.04
2023-02-25T22:32:28.507Z,4.03
2023-02-25T22:34:56.102Z,4.02
2023-02-25T22:37:23.840Z,4.04
2023-02-25T22:39:51.546Z,4.05
2023-02-25T22:42:19.208Z,4.02
2023-02-25T22:44:46.940Z,3.99
2023-02-25T22:47:14.635Z,3.96
2023-02-25T22:49:45.645Z,3.93
2023-02-25T22:52:13.332Z,3.95
2023-02-25T22:54:41.265Z,3.95
2023-02-25T22:57:09.295Z,3.88
2023-02-25T22:59:37.007Z,3.85
2023-02-25T23:02:04.790Z,3.82
2023-02-25T23:04:32.841Z,3.78
2023-02-25T23:07:02.122Z,3.76
2023-02-25T23:09:29.906Z,3.75
2023-02-25T23:11:57.591Z,3.76
2023-02-25T23:14:25.265Z,3.76
2023-02-25T23:16:57.159Z,3.73
2023-02-25T23:19:24.883Z,3.74
2023-02-25T23:21:52.617Z,3.73
2023-02-25T23:24:22.868Z,3.76
2023-02-25T23:26:53.620Z,3.79
2023-02-25T23:29:21.467Z,3.80
2023-02-25T23:31:50.774Z,3.84
2023-02-25T23:34:20.858Z,3.87
2023-02-25T23:36:48.585Z,3.85
2023-02-25T23:39:17.272Z,3.84
2023-02-25T23:44:14.685Z,3.86
2023-02-25T23:46:45.031Z,3.79
2023-02-25T23:49:14.672Z,3.80
2023-02-25T23:51:43.404Z,3.81
2023-02-25T23:54:14.298Z,3.79
2023-02-25T23:56:42.057Z,3.78
2023-02-25T23:59:11.440Z,3.77
